Terminal Aerodrome Forecast
Issued by NWS Chicago, IL

Home | Current Version | Previous Version | Text Only | Print | Product List | Glossary Off
Versions: 1 2 3 4 5 6 7 8 9 10 11 12 13 14 15 16 17 18 19 20 21 22 23 24 25 26 27 28 29 30 31 32

000
FTUS43 KLOT 211400 AAB
TAFRFD
TAF AMD
KRFD 211400Z 2114/2212 30015G22KT P6SM BKN020
     FM211700 34013G22KT P6SM VCSH BKN025
     FM212000 36013KT P6SM SCT035
     FM220200 01010KT P6SM FEW030
     FM220700 36005KT P6SM SKC=

USA.gov is the U.S. government's official web portal to all federal, state and local government web resources and services.